Time;durP1;ratioP1;P1;durP2;ratioP2;P2;SDS_P1;SDS_P2;PMS_P1;PMS_P2;Temp;Humidity;BMP_temperature;BMP_pressure;BME280_temperature;BME280_humidity;BME280_pressure;Samples;Min_cycle;Max_cycle;Signal;HPM_P1;HPM_P2
2023/09/13 00:00:41;;;;;;;9.00;8.30;;;;;;;;;;5100351;28;20203;-66
2023/09/13 00:03:10;;;;;;;9.10;8.27;;;;;;;;;;5100615;28;20594;-66
2023/09/13 00:05:37;;;;;;;8.85;8.25;;;;;;;;;;5100010;28;20231;-66
2023/09/13 00:08:05;;;;;;;9.50;8.60;;;;;;;;;;5100072;28;20204;-66
2023/09/13 00:10:33;;;;;;;9.43;8.60;;;;;;;;;;5099798;28;20321;-66
2023/09/13 00:13:01;;;;;;;9.65;8.75;;;;;;;;;;5100456;28;20586;-66
2023/09/13 00:15:29;;;;;;;9.40;8.60;;;;;;;;;;5100665;28;20288;-66
2023/09/13 00:17:56;;;;;;;9.50;8.65;;;;;;;;;;5100185;28;20215;-66
2023/09/13 00:20:27;;;;;;;9.30;8.50;;;;;;;;;;5100165;28;20211;-66
2023/09/13 00:22:55;;;;;;;9.15;8.20;;;;;;;;;;5100138;28;20641;-67
2023/09/13 00:25:22;;;;;;;8.68;7.88;;;;;;;;;;5099971;28;20227;-67
2023/09/13 00:27:50;;;;;;;9.35;8.50;;;;;;;;;;5100101;28;20207;-67
2023/09/13 00:30:17;;;;;;;8.77;8.07;;;;;;;;;;5099952;28;20224;-67
2023/09/13 00:32:45;;;;;;;8.90;8.07;;;;;;;;;;5099801;28;20208;-67
2023/09/13 00:35:12;;;;;;;9.23;8.20;;;;;;;;;;5100349;28;20484;-67
2023/09/13 00:37:41;;;;;;;10.48;8.30;;;;;;;;;;5098332;28;20244;-66
2023/09/13 00:40:10;;;;;;;9.27;8.38;;;;;;;;;;5099958;28;20204;-66
2023/09/13 00:42:37;;;;;;;9.77;8.80;;;;;;;;;;5099789;28;20212;-66
2023/09/13 00:45:06;;;;;;;10.18;9.18;;;;;;;;;;5099660;28;20238;-66
2023/09/13 00:47:33;;;;;;;10.00;9.00;;;;;;;;;;5099483;28;20203;-66
2023/09/13 00:50:01;;;;;;;9.88;8.98;;;;;;;;;;5099499;28;20238;-66
2023/09/13 00:52:29;;;;;;;9.40;8.57;;;;;;;;;;5099404;28;20203;-66
2023/09/13 00:54:58;;;;;;;9.88;8.98;;;;;;;;;;5099462;28;20210;-66
2023/09/13 00:57:25;;;;;;;9.32;8.63;;;;;;;;;;5098902;28;20290;-66
2023/09/13 00:59:53;;;;;;;8.82;8.13;;;;;;;;;;5099516;28;20580;-66
2023/09/13 01:02:21;;;;;;;8.88;8.15;;;;;;;;;;5098987;28;20602;-66
2023/09/13 01:04:49;;;;;;;8.73;8.02;;;;;;;;;;5098995;28;20231;-66
2023/09/13 01:07:17;;;;;;;9.32;8.52;;;;;;;;;;5099332;28;20211;-66
2023/09/13 01:09:44;;;;;;;9.98;9.00;;;;;;;;;;5098728;28;20207;-66
2023/09/13 01:12:13;;;;;;;9.50;8.65;;;;;;;;;;5099569;28;20204;-66
2023/09/13 01:14:43;;;;;;;10.05;9.15;;;;;;;;;;5099168;28;20214;-66
2023/09/13 01:17:14;;;;;;;9.98;9.15;;;;;;;;;;5098965;28;20632;-66
2023/09/13 01:19:50;;;;;;;9.50;8.75;;;;;;;;;;5099091;28;20203;-66
2023/09/13 01:22:47;;;;;;;9.95;9.05;;;;;;;;;;5098671;28;20203;-66
2023/09/13 01:25:23;;;;;;;9.88;9.07;;;;;;;;;;5016875;28;20238;-66
2023/09/13 01:27:58;;;;;;;9.85;8.88;;;;;;;;;;5085322;28;20603;-66
2023/09/13 01:30:28;;;;;;;10.18;9.25;;;;;;;;;;5098642;28;20277;-66
2023/09/13 01:32:55;;;;;;;9.65;8.85;;;;;;;;;;5098891;28;20215;-66
2023/09/13 01:35:23;;;;;;;10.15;9.25;;;;;;;;;;5098671;28;20215;-66
2023/09/13 01:37:51;;;;;;;9.80;8.90;;;;;;;;;;5098453;28;20232;-66
2023/09/13 01:40:18;;;;;;;9.90;9.00;;;;;;;;;;5098732;28;20203;-66
2023/09/13 01:42:46;;;;;;;9.45;8.57;;;;;;;;;;5098291;28;20497;-66
2023/09/13 01:45:15;;;;;;;10.25;9.43;;;;;;;;;;5098453;28;20224;-66
2023/09/13 01:47:46;;;;;;;10.13;9.10;;;;;;;;;;5098128;28;20203;-66
2023/09/13 01:50:14;;;;;;;9.40;8.52;;;;;;;;;;5098064;28;20656;-66
2023/09/13 01:52:42;;;;;;;9.70;8.80;;;;;;;;;;5098303;28;20214;-66
2023/09/13 01:55:10;;;;;;;10.45;9.55;;;;;;;;;;5098255;28;20204;-66
2023/09/13 01:57:39;;;;;;;10.07;9.20;;;;;;;;;;5098523;28;20203;-66
2023/09/13 02:00:07;;;;;;;10.90;9.90;;;;;;;;;;5097822;28;20209;-66
2023/09/13 02:02:35;;;;;;;10.85;9.77;;;;;;;;;;5098153;28;20226;-66
2023/09/13 02:05:04;;;;;;;10.35;9.50;;;;;;;;;;5098426;28;20204;-66
2023/09/13 02:07:32;;;;;;;10.57;9.57;;;;;;;;;;5097941;28;20579;-66
2023/09/13 02:09:59;;;;;;;10.38;9.45;;;;;;;;;;5098043;28;20204;-66
2023/09/13 02:12:27;;;;;;;10.63;9.73;;;;;;;;;;5098131;28;20203;-66
2023/09/13 02:14:55;;;;;;;10.35;9.55;;;;;;;;;;5098108;28;20599;-66
2023/09/13 02:17:22;;;;;;;9.98;9.15;;;;;;;;;;5098417;28;20322;-66
2023/09/13 02:19:50;;;;;;;10.00;9.20;;;;;;;;;;5097744;28;20222;-66
2023/09/13 02:22:19;;;;;;;9.82;9.00;;;;;;;;;;5097725;28;20211;-66
2023/09/13 02:24:46;;;;;;;10.45;9.55;;;;;;;;;;5098099;28;20265;-66
2023/09/13 02:27:14;;;;;;;12.55;9.07;;;;;;;;;;5097915;28;20242;-66
2023/09/13 02:29:42;;;;;;;10.35;9.45;;;;;;;;;;5097284;28;20221;-66
2023/09/13 02:32:09;;;;;;;10.45;9.65;;;;;;;;;;5097565;28;20268;-66
2023/09/13 02:34:37;;;;;;;10.05;9.23;;;;;;;;;;5097640;28;20207;-66
2023/09/13 02:37:05;;;;;;;11.05;9.95;;;;;;;;;;5097750;28;20200;-66
2023/09/13 02:39:35;;;;;;;9.88;9.05;;;;;;;;;;5097588;28;20203;-66
2023/09/13 02:42:02;;;;;;;9.82;8.98;;;;;;;;;;5097750;28;20320;-66
2023/09/13 02:44:31;;;;;;;10.30;9.25;;;;;;;;;;5097330;28;20207;-66
2023/09/13 02:46:58;;;;;;;10.43;9.63;;;;;;;;;;5097524;28;20280;-67
2023/09/13 02:49:26;;;;;;;9.38;8.57;;;;;;;;;;5097346;28;20626;-66
2023/09/13 02:51:54;;;;;;;9.75;8.90;;;;;;;;;;5097570;28;20211;-66
2023/09/13 02:54:21;;;;;;;10.88;9.90;;;;;;;;;;5097979;28;20211;-66
2023/09/13 02:56:52;;;;;;;9.60;8.90;;;;;;;;;;5097620;28;20199;-66
2023/09/13 02:59:20;;;;;;;9.85;9.00;;;;;;;;;;5097186;28;20599;-66
2023/09/13 03:01:47;;;;;;;9.32;8.63;;;;;;;;;;5099493;28;20204;-66
2023/09/13 03:04:15;;;;;;;9.38;8.68;;;;;;;;;;5101368;28;20211;-66
2023/09/13 03:06:44;;;;;;;9.82;9.02;;;;;;;;;;5101586;28;20227;-66
2023/09/13 03:09:12;;;;;;;9.27;8.48;;;;;;;;;;5101570;28;20203;-66
2023/09/13 03:11:39;;;;;;;9.43;8.73;;;;;;;;;;5101509;28;20204;-67
2023/09/13 03:14:08;;;;;;;9.63;8.73;;;;;;;;;;5101486;28;20610;-67
2023/09/13 03:16:36;;;;;;;9.50;8.73;;;;;;;;;;5100940;28;20200;-66
2023/09/13 03:19:06;;;;;;;9.55;8.85;;;;;;;;;;5101022;28;20204;-66
2023/09/13 03:21:34;;;;;;;9.77;9.07;;;;;;;;;;5101028;28;20299;-66
2023/09/13 03:24:01;;;;;;;9.70;9.00;;;;;;;;;;5100602;28;20250;-66
2023/09/13 03:26:29;;;;;;;9.77;8.88;;;;;;;;;;5101048;28;20219;-66
2023/09/13 03:28:57;;;;;;;9.93;9.07;;;;;;;;;;5100770;28;20208;-66
2023/09/13 03:31:26;;;;;;;9.57;8.77;;;;;;;;;;5100602;28;20208;-66
2023/09/13 03:33:55;;;;;;;10.15;9.27;;;;;;;;;;5100628;28;20678;-66
2023/09/13 03:36:22;;;;;;;10.32;9.43;;;;;;;;;;5100154;28;20677;-66
2023/09/13 03:38:50;;;;;;;10.57;9.70;;;;;;;;;;5100484;28;20228;-66
2023/09/13 03:41:19;;;;;;;10.40;9.60;;;;;;;;;;5100037;28;20253;-66
2023/09/13 03:43:46;;;;;;;10.70;9.80;;;;;;;;;;5100466;28;20556;-66
2023/09/13 03:46:14;;;;;;;10.52;9.63;;;;;;;;;;5100350;28;20364;-66
2023/09/13 03:48:43;;;;;;;10.07;9.20;;;;;;;;;;5099962;28;20631;-66
2023/09/13 03:51:11;;;;;;;9.27;8.57;;;;;;;;;;5099678;28;20207;-66
2023/09/13 03:53:39;;;;;;;9.27;8.55;;;;;;;;;;5100160;28;20253;-66
2023/09/13 03:56:07;;;;;;;9.80;8.90;;;;;;;;;;5100192;28;20199;-66
2023/09/13 03:58:35;;;;;;;9.23;8.43;;;;;;;;;;5100313;28;20480;-66
2023/09/13 04:01:04;;;;;;;9.27;8.48;;;;;;;;;;5099780;28;20204;-66
2023/09/13 04:03:32;;;;;;;8.98;8.27;;;;;;;;;;5099965;28;20241;-66
2023/09/13 04:06:02;;;;;;;8.90;8.15;;;;;;;;;;5100307;28;20477;-66
2023/09/13 04:08:30;;;;;;;8.90;8.30;;;;;;;;;;5099864;28;20203;-66
2023/09/13 04:10:57;;;;;;;9.27;8.57;;;;;;;;;;5099452;28;20204;-66
2023/09/13 04:13:25;;;;;;;9.15;8.35;;;;;;;;;;5099275;28;20517;-66
2023/09/13 04:15:52;;;;;;;9.85;9.00;;;;;;;;;;5099650;28;20200;-66
2023/09/13 04:18:20;;;;;;;9.82;9.02;;;;;;;;;;5099264;28;20591;-66
2023/09/13 04:20:48;;;;;;;9.40;8.60;;;;;;;;;;5098823;28;20210;-66
2023/09/13 04:23:17;;;;;;;9.73;8.93;;;;;;;;;;5099164;28;20208;-66
2023/09/13 04:25:44;;;;;;;9.23;8.52;;;;;;;;;;5098443;28;20250;-66
2023/09/13 04:28:12;;;;;;;9.57;8.77;;;;;;;;;;5098150;28;20203;-66
2023/09/13 04:30:40;;;;;;;9.57;8.68;;;;;;;;;;5098379;28;20211;-66
2023/09/13 04:33:08;;;;;;;9.52;8.82;;;;;;;;;;5098889;28;20208;-66
2023/09/13 04:35:36;;;;;;;9.77;8.98;;;;;;;;;;5098522;28;20222;-66
2023/09/13 04:38:03;;;;;;;9.85;9.05;;;;;;;;;;5098347;28;20239;-66
2023/09/13 04:40:32;;;;;;;10.13;9.32;;;;;;;;;;5098381;28;20265;-66
2023/09/13 04:43:15;;;;;;;9.43;8.63;;;;;;;;;;5098018;28;20591;-66
2023/09/13 04:45:42;;;;;;;9.90;9.10;;;;;;;;;;5097757;28;20218;-66
2023/09/13 04:48:10;;;;;;;10.77;9.77;;;;;;;;;;5098222;28;20210;-66
2023/09/13 04:50:37;;;;;;;9.98;9.18;;;;;;;;;;5097609;28;20204;-66
2023/09/13 04:53:07;;;;;;;9.88;9.10;;;;;;;;;;5097683;28;20205;-66
2023/09/13 04:55:35;;;;;;;9.88;9.07;;;;;;;;;;5096658;28;20204;-66
2023/09/13 04:58:03;;;;;;;10.25;9.35;;;;;;;;;;5097475;28;20200;-66
2023/09/13 05:00:31;;;;;;;10.48;9.38;;;;;;;;;;5097500;28;20214;-66
2023/09/13 05:02:58;;;;;;;10.13;9.23;;;;;;;;;;5096276;28;20208;-66
2023/09/13 05:05:26;;;;;;;10.38;9.38;;;;;;;;;;5096344;28;20219;-66
2023/09/13 05:07:54;;;;;;;10.55;9.60;;;;;;;;;;5095392;28;20246;-66
2023/09/13 05:10:22;;;;;;;10.13;9.25;;;;;;;;;;5096257;28;20239;-66
2023/09/13 05:12:51;;;;;;;10.20;9.40;;;;;;;;;;5095016;28;20216;-66
2023/09/13 05:15:19;;;;;;;10.02;9.23;;;;;;;;;;5095458;28;20200;-66
2023/09/13 05:17:46;;;;;;;10.23;9.20;;;;;;;;;;5095800;28;20644;-66
2023/09/13 05:20:14;;;;;;;10.18;9.27;;;;;;;;;;5095261;28;20233;-66
2023/09/13 05:22:44;;;;;;;10.20;9.40;;;;;;;;;;5095488;28;20534;-66
2023/09/13 05:25:11;;;;;;;10.27;9.25;;;;;;;;;;5095209;28;20207;-66
2023/09/13 05:27:39;;;;;;;10.23;9.32;;;;;;;;;;5096467;28;20235;-66
2023/09/13 05:30:09;;;;;;;10.32;9.43;;;;;;;;;;5096460;28;20214;-66
2023/09/13 05:32:36;;;;;;;9.43;8.73;;;;;;;;;;5095467;28;20200;-66
2023/09/13 05:35:04;;;;;;;9.82;9.02;;;;;;;;;;5096264;28;20234;-66
2023/09/13 05:37:33;;;;;;;9.13;8.32;;;;;;;;;;5095447;28;20239;-66
2023/09/13 05:40:05;;;;;;;9.93;9.02;;;;;;;;;;5095437;28;20218;-66
2023/09/13 05:42:34;;;;;;;9.85;8.95;;;;;;;;;;5095606;28;20238;-66
2023/09/13 05:45:02;;;;;;;9.18;8.48;;;;;;;;;;5095258;28;20196;-66
2023/09/13 05:47:31;;;;;;;9.27;8.57;;;;;;;;;;5095533;28;20235;-66
2023/09/13 05:49:59;;;;;;;9.07;8.40;;;;;;;;;;5095306;28;20203;-66
2023/09/13 05:52:26;;;;;;;9.25;8.55;;;;;;;;;;5095110;28;20203;-66
2023/09/13 05:54:54;;;;;;;8.77;8.07;;;;;;;;;;5095413;28;20478;-66
2023/09/13 05:57:22;;;;;;;8.93;8.20;;;;;;;;;;5095204;28;20208;-66
2023/09/13 05:59:49;;;;;;;8.13;7.50;;;;;;;;;;5094912;28;20576;-66
2023/09/13 06:02:18;;;;;;;8.10;7.40;;;;;;;;;;5095480;28;20214;-66
2023/09/13 06:04:47;;;;;;;8.07;7.47;;;;;;;;;;5094627;28;20235;-66
2023/09/13 06:07:14;;;;;;;8.05;7.45;;;;;;;;;;5095836;28;20224;-66
2023/09/13 06:09:42;;;;;;;8.60;7.82;;;;;;;;;;5094306;28;20212;-66
2023/09/13 06:12:09;;;;;;;7.75;7.15;;;;;;;;;;5094903;28;20829;-66
2023/09/13 06:14:38;;;;;;;7.72;7.13;;;;;;;;;;5095469;28;20268;-66
2023/09/13 06:17:05;;;;;;;7.15;6.65;;;;;;;;;;5096335;28;20192;-66
2023/09/13 06:19:33;;;;;;;8.13;7.20;;;;;;;;;;5094559;28;20213;-66
2023/09/13 06:22:02;;;;;;;7.15;6.63;;;;;;;;;;5095729;28;20302;-66
2023/09/13 06:24:30;;;;;;;7.20;6.50;;;;;;;;;;5095443;28;20203;-66
2023/09/13 06:26:57;;;;;;;7.13;6.53;;;;;;;;;;5095227;28;20672;-66
2023/09/13 06:29:25;;;;;;;6.70;6.20;;;;;;;;;;5094970;28;20196;-66
2023/09/13 06:31:55;;;;;;;6.60;6.10;;;;;;;;;;5095407;28;20292;-66
2023/09/13 06:34:23;;;;;;;6.10;5.60;;;;;;;;;;5095668;28;20251;-66
2023/09/13 06:36:50;;;;;;;6.35;5.82;;;;;;;;;;5095249;28;20200;-66
2023/09/13 06:39:19;;;;;;;6.55;5.95;;;;;;;;;;5095638;28;20607;-66
2023/09/13 06:41:47;;;;;;;5.95;5.45;;;;;;;;;;5095463;28;20204;-66
2023/09/13 06:44:15;;;;;;;5.72;5.32;;;;;;;;;;5095791;28;20214;-66
2023/09/13 06:46:43;;;;;;;6.00;5.50;;;;;;;;;;5094865;28;20238;-66
2023/09/13 06:49:10;;;;;;;5.80;5.35;;;;;;;;;;5094373;28;20211;-66
2023/09/13 06:51:38;;;;;;;5.18;4.78;;;;;;;;;;5095381;28;20199;-66
2023/09/13 06:54:06;;;;;;;5.57;5.10;;;;;;;;;;5095478;28;20195;-66
2023/09/13 06:56:35;;;;;;;5.25;4.85;;;;;;;;;;5096108;28;20212;-66
2023/09/13 06:59:03;;;;;;;5.97;5.47;;;;;;;;;;5094942;28;20211;-66
2023/09/13 07:01:30;;;;;;;5.50;5.00;;;;;;;;;;5095094;28;20265;-66
2023/09/13 07:03:58;;;;;;;5.65;5.25;;;;;;;;;;5094836;28;20203;-66
2023/09/13 07:06:26;;;;;;;5.18;4.78;;;;;;;;;;5094921;28;20204;-66
2023/09/13 07:08:53;;;;;;;5.55;4.97;;;;;;;;;;5094935;28;20204;-66
2023/09/13 07:11:21;;;;;;;5.88;5.38;;;;;;;;;;5095211;28;20211;-66
2023/09/13 07:13:50;;;;;;;5.07;4.68;;;;;;;;;;5094713;28;20203;-66
2023/09/13 07:16:17;;;;;;;5.50;5.10;;;;;;;;;;5095592;28;20203;-66
2023/09/13 07:18:45;;;;;;;5.60;5.10;;;;;;;;;;5095150;28;20243;-66
2023/09/13 07:21:12;;;;;;;5.28;4.88;;;;;;;;;;5095441;28;20336;-66
2023/09/13 07:23:40;;;;;;;5.50;5.00;;;;;;;;;;5095165;28;20238;-66
2023/09/13 07:26:07;;;;;;;5.18;4.78;;;;;;;;;;5094099;28;20203;-66
2023/09/13 07:28:35;;;;;;;5.35;4.88;;;;;;;;;;5095428;28;20239;-66
2023/09/13 07:31:06;;;;;;;5.80;5.30;;;;;;;;;;5095095;28;20213;-66
2023/09/13 07:33:33;;;;;;;5.60;5.10;;;;;;;;;;5095395;28;20231;-66
2023/09/13 07:36:01;;;;;;;5.30;4.90;;;;;;;;;;5093909;28;20679;-66
2023/09/13 07:38:29;;;;;;;5.60;5.10;;;;;;;;;;5095000;28;20495;-66
2023/09/13 07:40:57;;;;;;;4.82;4.47;;;;;;;;;;5095226;28;20517;-66
2023/09/13 07:43:24;;;;;;;5.28;4.85;;;;;;;;;;5094723;28;20250;-66
2023/09/13 07:45:51;;;;;;;5.38;4.90;;;;;;;;;;5095599;28;20208;-66
2023/09/13 07:48:22;;;;;;;4.80;4.45;;;;;;;;;;5097732;28;20525;-66
2023/09/13 07:50:50;;;;;;;5.03;4.63;;;;;;;;;;5098924;28;20501;-66
2023/09/13 07:53:17;;;;;;;5.75;5.28;;;;;;;;;;5098034;28;20231;-66
2023/09/13 07:55:45;;;;;;;4.93;4.60;;;;;;;;;;5097954;28;20203;-66
2023/09/13 07:58:12;;;;;;;4.95;4.60;;;;;;;;;;5097959;28;20311;-66
2023/09/13 08:00:40;;;;;;;5.60;5.10;;;;;;;;;;5097357;28;20206;-66
2023/09/13 08:03:09;;;;;;;5.10;4.80;;;;;;;;;;5097499;28;20599;-66
2023/09/13 08:05:38;;;;;;;5.30;4.90;;;;;;;;;;5097883;28;20203;-66
2023/09/13 08:08:07;;;;;;;5.13;4.75;;;;;;;;;;5098141;28;20249;-66
2023/09/13 08:10:34;;;;;;;5.72;5.22;;;;;;;;;;5098036;28;20619;-66
2023/09/13 08:13:02;;;;;;;5.38;4.97;;;;;;;;;;5098083;28;20299;-66
2023/09/13 08:15:29;;;;;;;6.03;5.50;;;;;;;;;;5098233;28;20204;-66
2023/09/13 08:17:57;;;;;;;5.43;5.03;;;;;;;;;;5097555;28;20224;-66
2023/09/13 08:20:24;;;;;;;5.68;5.18;;;;;;;;;;5097394;28;20298;-66
2023/09/13 08:22:53;;;;;;;5.60;5.20;;;;;;;;;;5097385;28;20307;-66
2023/09/13 08:25:21;;;;;;;6.25;5.70;;;;;;;;;;5096949;28;20196;-67
2023/09/13 08:27:49;;;;;;;5.32;4.93;;;;;;;;;;5097278;28;20855;-66
2023/09/13 08:30:16;;;;;;;5.75;5.30;;;;;;;;;;5097694;28;20214;-66
2023/09/13 08:32:44;;;;;;;5.53;5.13;;;;;;;;;;5097430;28;20199;-66
2023/09/13 08:35:11;;;;;;;5.53;5.13;;;;;;;;;;5097018;28;20208;-66
2023/09/13 08:37:39;;;;;;;5.40;5.00;;;;;;;;;;5096789;28;20588;-66
2023/09/13 08:40:08;;;;;;;5.70;5.30;;;;;;;;;;5097968;28;20234;-66
2023/09/13 08:42:36;;;;;;;6.05;5.65;;;;;;;;;;5097975;28;20204;-66
2023/09/13 08:45:03;;;;;;;6.03;5.63;;;;;;;;;;5097511;28;20253;-66
2023/09/13 08:47:31;;;;;;;6.18;5.68;;;;;;;;;;5096756;28;20340;-66
2023/09/13 08:50:00;;;;;;;5.85;5.45;;;;;;;;;;5096775;28;20203;-66
2023/09/13 08:52:28;;;;;;;5.32;4.93;;;;;;;;;;5097072;28;20303;-66
2023/09/13 08:54:56;;;;;;;5.60;5.18;;;;;;;;;;5097195;28;20505;-66
2023/09/13 08:57:26;;;;;;;6.20;5.70;;;;;;;;;;5096657;28;20621;-66
2023/09/13 08:59:55;;;;;;;5.57;5.15;;;;;;;;;;5095306;28;20199;-66
2023/09/13 09:02:24;;;;;;;5.45;5.05;;;;;;;;;;5096199;28;20811;-66
2023/09/13 09:04:52;;;;;;;6.13;5.53;;;;;;;;;;5094630;28;20214;-66
2023/09/13 09:07:21;;;;;;;6.50;6.00;;;;;;;;;;5096745;28;20261;-66
2023/09/13 09:09:49;;;;;;;6.40;5.93;;;;;;;;;;5095040;28;20268;-66
2023/09/13 09:12:18;;;;;;;6.50;6.00;;;;;;;;;;5097113;28;20247;-66
2023/09/13 09:14:47;;;;;;;6.70;6.20;;;;;;;;;;5096790;28;20277;-66
2023/09/13 09:17:16;;;;;;;6.60;5.95;;;;;;;;;;5096879;28;20204;-66
2023/09/13 09:19:44;;;;;;;6.43;5.93;;;;;;;;;;5096167;28;20207;-66
2023/09/13 09:22:12;;;;;;;6.43;5.93;;;;;;;;;;5096801;28;20195;-66
2023/09/13 09:24:40;;;;;;;6.97;6.28;;;;;;;;;;5096695;28;20250;-66
2023/09/13 09:27:08;;;;;;;6.68;6.07;;;;;;;;;;5096040;28;20235;-66
2023/09/13 09:29:36;;;;;;;5.88;5.47;;;;;;;;;;5096713;28;20205;-66
2023/09/13 09:32:08;;;;;;;6.07;5.47;;;;;;;;;;5095763;28;20298;-66
2023/09/13 09:34:38;;;;;;;6.97;6.28;;;;;;;;;;5096287;28;20231;-66
2023/09/13 09:37:08;;;;;;;6.40;5.80;;;;;;;;;;5096628;28;20542;-66
2023/09/13 09:39:38;;;;;;;6.88;6.10;;;;;;;;;;5096493;28;20618;-66
2023/09/13 09:42:06;;;;;;;6.05;5.55;;;;;;;;;;5096172;28;20208;-66
2023/09/13 09:44:33;;;;;;;6.30;5.70;;;;;;;;;;5094882;28;20233;-66
2023/09/13 09:47:01;;;;;;;7.75;5.72;;;;;;;;;;5065662;28;20785;-66
2023/09/13 09:49:30;;;;;;;6.60;6.00;;;;;;;;;;5070026;28;20322;-66
2023/09/13 09:51:57;;;;;;;5.50;5.00;;;;;;;;;;5075384;28;20292;-66
2023/09/13 09:54:25;;;;;;;6.60;5.97;;;;;;;;;;5075377;28;21146;-66
2023/09/13 09:56:53;;;;;;;5.50;5.10;;;;;;;;;;5075175;28;20231;-66
2023/09/13 09:59:20;;;;;;;6.00;5.50;;;;;;;;;;5075308;28;20619;-66
2023/09/13 10:01:57;;;;;;;5.32;4.93;;;;;;;;;;5074980;28;20312;-66
2023/09/13 10:04:24;;;;;;;5.38;4.97;;;;;;;;;;5074097;28;20214;-66
2023/09/13 10:07:00;;;;;;;5.38;4.97;;;;;;;;;;5073755;28;20315;-66
2023/09/13 10:09:39;;;;;;;5.35;4.95;;;;;;;;;;5075337;28;20822;-66
2023/09/13 10:12:09;;;;;;;5.68;5.20;;;;;;;;;;5074321;28;20200;-66
2023/09/13 10:14:37;;;;;;;5.18;4.78;;;;;;;;;;5074486;28;20568;-66
2023/09/13 10:17:05;;;;;;;5.57;5.18;;;;;;;;;;5074458;28;20269;-66
2023/09/13 10:19:33;;;;;;;5.50;5.10;;;;;;;;;;5074732;28;20608;-66
2023/09/13 10:22:02;;;;;;;5.53;5.13;;;;;;;;;;5074364;28;20262;-66
2023/09/13 10:24:33;;;;;;;5.43;5.03;;;;;;;;;;5073435;28;20659;-66
2023/09/13 10:27:01;;;;;;;5.47;5.07;;;;;;;;;;5073571;28;20269;-67
2023/09/13 10:29:32;;;;;;;5.47;5.07;;;;;;;;;;5073045;28;20219;-66
2023/09/13 10:32:02;;;;;;;5.75;5.35;;;;;;;;;;5073381;28;20215;-66
2023/09/13 10:34:31;;;;;;;5.60;5.10;;;;;;;;;;5073303;28;20215;-66
2023/09/13 10:37:02;;;;;;;5.93;5.43;;;;;;;;;;5073166;28;20254;-66
2023/09/13 10:39:31;;;;;;;4.97;4.57;;;;;;;;;;5073580;28;20216;-66
2023/09/13 10:42:02;;;;;;;5.10;4.80;;;;;;;;;;5073795;28;20234;-66
2023/09/13 10:44:29;;;;;;;5.45;5.03;;;;;;;;;;5074631;28;20298;-66
2023/09/13 10:46:57;;;;;;;5.05;4.68;;;;;;;;;;5073349;28;20239;-66
2023/09/13 10:49:25;;;;;;;5.55;5.10;;;;;;;;;;5073266;28;20333;-66
2023/09/13 10:51:55;;;;;;;5.13;4.72;;;;;;;;;;5074045;28;20239;-66
2023/09/13 10:54:23;;;;;;;5.28;4.88;;;;;;;;;;5074061;28;20239;-66
2023/09/13 10:56:53;;;;;;;5.70;5.28;;;;;;;;;;5074321;28;20200;-66
2023/09/13 10:59:23;;;;;;;5.70;5.30;;;;;;;;;;5075086;28;20559;-66
2023/09/13 11:01:51;;;;;;;5.95;5.45;;;;;;;;;;5072850;28;20203;-66
2023/09/13 11:04:19;;;;;;;5.57;5.18;;;;;;;;;;5073779;28;20204;-66
2023/09/13 11:06:48;;;;;;;5.32;4.93;;;;;;;;;;5073619;28;20306;-66
2023/09/13 11:09:16;;;;;;;5.13;4.72;;;;;;;;;;5073718;28;20273;-66
2023/09/13 11:11:48;;;;;;;5.43;5.00;;;;;;;;;;5073746;28;20656;-66
2023/09/13 11:14:19;;;;;;;5.32;4.93;;;;;;;;;;5073779;28;20211;-66
2023/09/13 11:16:47;;;;;;;5.60;5.10;;;;;;;;;;5074051;28;20208;-66
2023/09/13 11:19:15;;;;;;;4.82;4.53;;;;;;;;;;5073486;28;20211;-66
2023/09/13 11:21:51;;;;;;;5.68;5.22;;;;;;;;;;5073906;28;20715;-66
2023/09/13 11:24:33;;;;;;;5.32;4.95;;;;;;;;;;5077826;28;20284;-66
2023/09/13 11:27:10;;;;;;;5.72;5.32;;;;;;;;;;5075715;28;20231;-66
2023/09/13 11:29:42;;;;;;;5.10;4.70;;;;;;;;;;5077907;28;20680;-66
2023/09/13 11:32:16;;;;;;;5.47;5.07;;;;;;;;;;5077992;28;20215;-66
2023/09/13 11:34:43;;;;;;;6.40;5.80;;;;;;;;;;5077063;28;20200;-66
2023/09/13 11:37:12;;;;;;;5.50;5.10;;;;;;;;;;5077687;28;20768;-66
2023/09/13 11:39:40;;;;;;;5.45;5.05;;;;;;;;;;5077775;28;20626;-66
2023/09/13 11:42:09;;;;;;;5.50;5.10;;;;;;;;;;5076343;28;20200;-66
2023/09/13 11:44:38;;;;;;;5.97;5.50;;;;;;;;;;5076575;28;20515;-66
2023/09/13 11:47:12;;;;;;;5.65;5.25;;;;;;;;;;5077512;28;20215;-66
2023/09/13 11:49:42;;;;;;;5.80;5.40;;;;;;;;;;5077737;28;20219;-66
2023/09/13 11:52:10;;;;;;;5.72;5.32;;;;;;;;;;5077152;28;20497;-66
2023/09/13 11:54:53;;;;;;;5.70;5.30;;;;;;;;;;5077153;28;20204;-66
2023/09/13 11:57:22;;;;;;;5.63;5.20;;;;;;;;;;5077384;28;20212;-66
2023/09/13 11:59:53;;;;;;;5.53;5.18;;;;;;;;;;5076793;28;20207;-66
2023/09/13 12:02:22;;;;;;;5.75;5.25;;;;;;;;;;5077157;28;20486;-66
2023/09/13 12:04:50;;;;;;;5.38;4.97;;;;;;;;;;5077752;28;20232;-66
2023/09/13 12:07:19;;;;;;;5.28;4.88;;;;;;;;;;5076887;28;20303;-66
2023/09/13 12:09:56;;;;;;;6.10;5.70;;;;;;;;;;5076698;28;20231;-66
2023/09/13 12:12:24;;;;;;;5.68;5.28;;;;;;;;;;5076099;28;20212;-66
2023/09/13 12:14:52;;;;;;;5.60;5.20;;;;;;;;;;5076358;28;20216;-66
2023/09/13 12:17:19;;;;;;;5.47;4.97;;;;;;;;;;5076772;28;20200;-66
2023/09/13 12:19:48;;;;;;;5.70;5.20;;;;;;;;;;5076222;28;20231;-66
2023/09/13 12:22:17;;;;;;;5.47;5.07;;;;;;;;;;5076648;28;20200;-66
2023/09/13 12:24:51;;;;;;;5.93;5.43;;;;;;;;;;5076728;28;20240;-66
2023/09/13 12:27:19;;;;;;;5.45;5.05;;;;;;;;;;5076188;28;20204;-66
2023/09/13 12:29:46;;;;;;;5.57;5.18;;;;;;;;;;5076487;28;20260;-66
2023/09/13 12:32:14;;;;;;;5.95;5.45;;;;;;;;;;5076010;28;20211;-66
2023/09/13 12:34:42;;;;;;;5.85;5.45;;;;;;;;;;5074176;28;20208;-66
2023/09/13 12:37:11;;;;;;;5.60;5.20;;;;;;;;;;5075376;28;20239;-66
2023/09/13 12:39:39;;;;;;;5.82;5.43;;;;;;;;;;5056471;28;20589;-66
2023/09/13 12:42:07;;;;;;;5.53;5.13;;;;;;;;;;5054833;28;20486;-66
2023/09/13 12:44:35;;;;;;;5.72;5.32;;;;;;;;;;5055301;28;20252;-66
2023/09/13 12:47:03;;;;;;;5.53;5.13;;;;;;;;;;5054955;28;20292;-66
2023/09/13 12:49:31;;;;;;;5.57;5.18;;;;;;;;;;5054942;28;20317;-66
2023/09/13 12:51:58;;;;;;;5.72;5.22;;;;;;;;;;5055545;28;20236;-66
2023/09/13 12:54:27;;;;;;;5.97;5.50;;;;;;;;;;5056123;28;20205;-66
2023/09/13 12:57:02;;;;;;;6.00;5.50;;;;;;;;;;5055924;28;20232;-66
2023/09/13 12:59:41;;;;;;;5.22;4.82;;;;;;;;;;5056165;28;20204;-66
2023/09/13 13:02:13;;;;;;;5.50;5.10;;;;;;;;;;5055833;28;20201;-66
2023/09/13 13:04:42;;;;;;;5.57;5.18;;;;;;;;;;5056075;28;20742;-66
2023/09/13 13:07:10;;;;;;;5.60;5.20;;;;;;;;;;5055546;28;20292;-66
2023/09/13 13:09:38;;;;;;;5.90;5.47;;;;;;;;;;5055707;28;20323;-66
2023/09/13 13:12:07;;;;;;;5.55;5.15;;;;;;;;;;5055658;28;20240;-66
2023/09/13 13:14:34;;;;;;;5.60;5.20;;;;;;;;;;5055277;28;20290;-66
2023/09/13 13:17:02;;;;;;;6.20;5.70;;;;;;;;;;5055729;28;20287;-66
2023/09/13 13:19:31;;;;;;;6.10;5.60;;;;;;;;;;5054846;28;20741;-66
2023/09/13 13:21:58;;;;;;;5.60;5.20;;;;;;;;;;5055323;28;20205;-66
2023/09/13 13:24:26;;;;;;;5.50;5.10;;;;;;;;;;5054834;28;20249;-66
2023/09/13 13:26:55;;;;;;;6.30;5.80;;;;;;;;;;5055319;28;20205;-66
2023/09/13 13:29:23;;;;;;;5.45;5.05;;;;;;;;;;5054300;28;20260;-66
2023/09/13 13:31:50;;;;;;;6.07;5.57;;;;;;;;;;5053915;28;20204;-66
2023/09/13 13:34:18;;;;;;;6.07;5.57;;;;;;;;;;5053516;28;20292;-66
2023/09/13 13:36:46;;;;;;;6.65;6.15;;;;;;;;;;5052993;28;20292;-66
2023/09/13 13:39:15;;;;;;;6.18;5.72;;;;;;;;;;5071759;28;20243;-66
2023/09/13 13:41:43;;;;;;;6.60;6.10;;;;;;;;;;5074486;28;20215;-66
2023/09/13 13:44:14;;;;;;;6.38;5.88;;;;;;;;;;5075220;28;20303;-66
2023/09/13 13:46:42;;;;;;;6.20;5.70;;;;;;;;;;5074527;28;20204;-66
2023/09/13 13:49:10;;;;;;;6.18;5.68;;;;;;;;;;5074304;28;20513;-66
2023/09/13 13:51:38;;;;;;;6.22;5.72;;;;;;;;;;5074251;28;20204;-66
2023/09/13 13:54:06;;;;;;;6.13;5.68;;;;;;;;;;5074854;28;20200;-66
2023/09/13 13:56:35;;;;;;;6.53;5.95;;;;;;;;;;5074298;28;20602;-66
2023/09/13 13:59:03;;;;;;;6.05;5.55;;;;;;;;;;5074628;28;20200;-66
2023/09/13 14:01:32;;;;;;;6.15;5.65;;;;;;;;;;5075008;28;20219;-66
2023/09/13 14:03:59;;;;;;;6.57;5.97;;;;;;;;;;5073962;28;20204;-66
2023/09/13 14:06:27;;;;;;;6.10;5.60;;;;;;;;;;5074457;28;20251;-66
2023/09/13 14:08:54;;;;;;;6.53;6.03;;;;;;;;;;5074262;28;20294;-66
2023/09/13 14:11:22;;;;;;;6.75;6.25;;;;;;;;;;5074953;28;20519;-66
2023/09/13 14:13:49;;;;;;;6.38;5.85;;;;;;;;;;5073821;28;20209;-66
2023/09/13 14:16:16;;;;;;;6.90;6.30;;;;;;;;;;5073713;28;20228;-66
2023/09/13 14:18:45;;;;;;;6.45;5.88;;;;;;;;;;5073286;28;20200;-66
2023/09/13 14:21:13;;;;;;;6.57;6.03;;;;;;;;;;5073801;28;20301;-66
2023/09/13 14:23:40;;;;;;;6.80;6.25;;;;;;;;;;5073694;28;20299;-66
2023/09/13 14:26:07;;;;;;;7.00;6.40;;;;;;;;;;5075063;28;20204;-66
2023/09/13 14:28:35;;;;;;;6.53;6.03;;;;;;;;;;5074336;28;20201;-66
2023/09/13 14:31:03;;;;;;;6.68;6.13;;;;;;;;;;5073255;28;20289;-66
2023/09/13 14:33:37;;;;;;;6.45;5.95;;;;;;;;;;5073911;28;20215;-66
2023/09/13 14:36:06;;;;;;;6.45;5.95;;;;;;;;;;5073925;28;20308;-66
2023/09/13 14:38:33;;;;;;;7.05;6.38;;;;;;;;;;5074516;28;20267;-66
2023/09/13 14:41:01;;;;;;;6.88;6.28;;;;;;;;;;5074163;28;20584;-66
2023/09/13 14:43:28;;;;;;;7.00;6.40;;;;;;;;;;5073383;28;20293;-66
2023/09/13 14:45:56;;;;;;;6.68;6.10;;;;;;;;;;5073714;28;20210;-66
2023/09/13 14:48:23;;;;;;;5.97;5.57;;;;;;;;;;5074193;28;20298;-66